Time;durP1;ratioP1;P1;durP2;ratioP2;P2;SDS_P1;SDS_P2;PMS_P1;PMS_P2;Temp;Humidity;BMP_temperature;BMP_pressure;BME280_temperature;BME280_humidity;BME280_pressure;Samples;Min_cycle;Max_cycle;Signal;HPM_P1;HPM_P2
2023/05/23 00:02:00;;;;;;;34.10;27.02;;;;;;;21.33;58.57;97141.84;4888664;28;20332;-77
2023/05/23 00:04:26;;;;;;;35.30;26.88;;;;;;;21.26;58.84;97148.69;4918909;28;21776;-78
2023/05/23 00:06:52;;;;;;;39.58;27.17;;;;;;;21.22;58.82;97140.59;4887260;28;20170;-78
2023/05/23 00:09:17;;;;;;;34.67;24.55;;;;;;;21.25;58.48;97144.47;4889983;28;20280;-80
2023/05/23 00:11:44;;;;;;;38.22;28.10;;;;;;;21.07;59.15;97135.78;4909369;28;20190;-80
2023/05/23 00:14:14;;;;;;;34.53;25.65;;;;;;;21.30;58.42;97141.66;4892317;28;20203;-77
2023/05/23 00:16:41;;;;;;;34.72;25.90;;;;;;;21.18;59.13;97142.31;4908257;28;20371;-79
2023/05/23 00:19:07;;;;;;;33.88;26.42;;;;;;;21.20;58.94;97142.00;4901886;28;20571;-79
2023/05/23 00:21:33;;;;;;;36.83;26.77;;;;;;;21.13;59.41;97137.97;4891478;28;20194;-79
2023/05/23 00:23:58;;;;;;;35.08;25.83;;;;;;;21.09;59.26;97138.91;4895445;28;20205;-78
2023/05/23 00:26:24;;;;;;;31.73;24.95;;;;;;;21.02;59.02;97142.00;4905796;28;20206;-78
2023/05/23 00:28:49;;;;;;;35.38;26.13;;;;;;;20.98;59.42;97140.31;4908836;28;20639;-78
2023/05/23 00:31:15;;;;;;;33.22;24.30;;;;;;;20.95;59.27;97153.06;4905925;28;20245;-78
2023/05/23 00:33:40;;;;;;;34.30;26.92;;;;;;;20.90;59.41;97149.81;4887562;28;20072;-77
2023/05/23 00:36:05;;;;;;;35.75;26.52;;;;;;;20.92;59.28;97145.78;4903411;28;20356;-78
2023/05/23 00:38:31;;;;;;;35.40;27.02;;;;;;;20.88;59.44;97149.34;4903199;28;20277;-78
2023/05/23 00:40:57;;;;;;;36.97;27.48;;;;;;;20.82;59.68;97148.75;4907261;28;20178;-79
2023/05/23 00:43:23;;;;;;;38.53;27.95;;;;;;;20.86;59.82;97143.59;4902048;28;20193;-78
2023/05/23 00:45:48;;;;;;;37.58;27.95;;;;;;;20.76;60.03;97144.69;4905064;28;20640;-79
2023/05/23 00:48:14;;;;;;;33.20;26.08;;;;;;;20.73;60.15;97140.81;4903310;28;20517;-78
2023/05/23 00:50:40;;;;;;;34.97;26.40;;;;;;;20.72;60.03;97136.59;4901396;28;20164;-78
2023/05/23 00:53:05;;;;;;;37.10;27.88;;;;;;;20.69;60.09;97134.56;4905403;28;20540;-78
2023/05/23 00:55:31;;;;;;;31.42;23.85;;;;;;;20.67;60.16;97136.75;4918484;28;20212;-78
2023/05/23 00:57:57;;;;;;;32.83;26.02;;;;;;;20.72;59.93;97149.06;4882708;28;20278;-78
2023/05/23 01:00:24;;;;;;;35.35;27.73;;;;;;;20.71;59.69;97147.47;4906492;28;20209;-78
2023/05/23 01:02:53;;;;;;;33.10;25.38;;;;;;;20.66;59.79;97156.34;4886973;28;20280;-78
2023/05/23 01:05:21;;;;;;;32.53;25.83;;;;;;;20.71;60.12;97156.19;4886554;28;20204;-78
2023/05/23 01:07:48;;;;;;;34.90;26.85;;;;;;;20.70;60.64;97159.13;4925232;28;20697;-78
2023/05/23 01:10:14;;;;;;;31.98;25.52;;;;;;;20.68;60.70;97162.13;4900964;28;20271;-78
2023/05/23 01:12:58;;;;;;;40.03;28.73;;;;;;;20.80;60.16;97166.00;4908033;28;20727;-78
2023/05/23 01:15:35;;;;;;;36.33;25.90;;;;;;;20.75;60.32;97157.13;4901114;28;20281;-77
2023/05/23 01:18:09;;;;;;;37.80;29.02;;;;;;;20.70;59.99;97152.00;4889141;28;20338;-78
2023/05/23 01:20:40;;;;;;;31.85;26.00;;;;;;;20.72;60.35;97157.00;4922424;28;20190;-78
2023/05/23 01:23:15;;;;;;;38.65;28.77;;;;;;;20.74;60.54;97162.75;4894539;28;20201;-78
2023/05/23 01:26:17;;;;;;;37.25;29.45;;;;;;;20.67;60.70;97147.31;4901836;28;20575;-78
2023/05/23 01:28:45;;;;;;;35.58;27.17;;;;;;;20.62;60.71;97160.72;4864328;28;20706;-79
2023/05/23 01:31:11;;;;;;;38.30;28.65;;;;;;;20.71;60.88;97164.13;4879528;28;20265;-78
2023/05/23 01:33:39;;;;;;;36.78;27.17;;;;;;;20.77;60.47;97162.13;4882732;28;20090;-77
2023/05/23 01:36:04;;;;;;;36.83;27.83;;;;;;;20.71;60.44;97164.13;4847366;28;20788;-77
2023/05/23 01:38:30;;;;;;;39.00;29.52;;;;;;;20.72;60.58;97168.34;4863205;28;20343;-78
2023/05/23 01:40:55;;;;;;;38.95;29.00;;;;;;;20.69;61.17;97176.91;4864255;28;20304;-78
2023/05/23 01:43:22;;;;;;;33.78;27.38;;;;;;;20.74;60.48;97170.69;4873319;28;20309;-78
2023/05/23 01:45:48;;;;;;;33.92;26.95;;;;;;;20.68;60.73;97163.97;4863089;28;20207;-78
2023/05/23 01:48:14;;;;;;;35.00;27.85;;;;;;;20.72;60.62;97170.22;4847441;28;20169;-78
2023/05/23 01:50:44;;;;;;;40.85;29.88;;;;;;;20.72;60.37;97170.22;4868268;28;20242;-78
2023/05/23 01:53:11;;;;;;;36.67;28.58;;;;;;;20.78;60.56;97174.25;4882376;28;20364;-78
2023/05/23 01:55:40;;;;;;;36.20;27.60;;;;;;;20.71;60.03;97164.13;4868954;28;20232;-78
2023/05/23 01:58:06;;;;;;;35.75;27.00;;;;;;;20.73;60.71;97172.56;4884635;28;20207;-78
2023/05/23 02:00:32;;;;;;;32.50;24.33;;;;;;;20.73;60.31;97177.84;4863274;28;20355;-78
2023/05/23 02:02:57;;;;;;;39.00;26.70;;;;;;;20.82;60.15;97182.34;4886329;28;20378;-78
2023/05/23 02:05:22;;;;;;;34.83;26.58;;;;;;;20.83;60.06;97181.25;4897679;28;20218;-78
2023/05/23 02:07:48;;;;;;;35.13;27.08;;;;;;;20.83;60.04;97175.97;4893808;28;20729;-78
2023/05/23 02:10:13;;;;;;;33.30;26.02;;;;;;;20.84;59.89;97178.31;4893636;28;20208;-78
2023/05/23 02:12:39;;;;;;;38.05;28.73;;;;;;;20.84;59.69;97173.03;4907658;28;20378;-79
2023/05/23 02:15:04;;;;;;;35.53;26.77;;;;;;;20.79;59.24;97175.81;4919902;28;20265;-78
2023/05/23 02:17:30;;;;;;;39.28;28.55;;;;;;;20.74;59.63;97178.63;4901806;28;20188;-78
2023/05/23 02:19:56;;;;;;;35.15;26.35;;;;;;;20.72;59.53;97180.81;4898369;28;20201;-78
2023/05/23 02:22:23;;;;;;;35.42;26.75;;;;;;;20.75;59.77;97183.59;4913928;28;20265;-78
2023/05/23 02:24:49;;;;;;;36.83;27.75;;;;;;;20.66;59.31;97179.38;4921817;28;20214;-79
2023/05/23 02:27:14;;;;;;;38.30;30.55;;;;;;;20.57;60.22;97176.69;4908338;28;20163;-77
2023/05/23 02:29:40;;;;;;;34.70;27.13;;;;;;;20.59;59.88;97179.81;4907234;28;20293;-78
2023/05/23 02:32:06;;;;;;;36.83;26.83;;;;;;;20.61;60.18;97190.84;4893309;28;20335;-77
2023/05/23 02:34:31;;;;;;;34.50;26.27;;;;;;;20.60;59.83;97181.38;4893404;28;20466;-78
2023/05/23 02:36:57;;;;;;;33.78;26.70;;;;;;;20.52;60.38;97193.47;4909549;28;20190;-78
2023/05/23 02:39:22;;;;;;;35.65;26.92;;;;;;;20.56;60.42;97193.66;4893285;28;20350;-77
2023/05/23 02:41:47;;;;;;;35.15;25.52;;;;;;;20.60;59.94;97191.97;4894347;28;20273;-78
2023/05/23 02:44:18;;;;;;;35.03;25.58;;;;;;;20.58;59.78;97205.50;4893848;28;20099;-77
2023/05/23 02:46:44;;;;;;;33.35;25.30;;;;;;;20.54;59.42;97193.94;4908645;28;20206;-78
2023/05/23 02:49:09;;;;;;;32.20;25.65;;;;;;;20.52;59.66;97204.06;4893722;28;20345;-78
2023/05/23 02:51:35;;;;;;;25.70;22.17;;;;;;;20.53;59.96;97207.50;4923256;28;20325;-77
2023/05/23 02:54:00;;;;;;;36.20;25.85;;;;;;;20.48;60.38;97203.13;4911315;28;20076;-78
2023/05/23 02:56:26;;;;;;;37.70;26.25;;;;;;;20.45;59.72;97203.75;4899953;28;20325;-78
2023/05/23 02:58:52;;;;;;;34.33;25.63;;;;;;;20.47;59.61;97203.44;4911384;28;20533;-79
2023/05/23 03:01:17;;;;;;;33.85;25.98;;;;;;;20.39;59.86;97197.81;4911561;28;20725;-77
2023/05/23 03:03:43;;;;;;;31.77;24.27;;;;;;;20.43;59.55;97195.34;4929654;28;20243;-78
2023/05/23 03:06:13;;;;;;;34.65;25.58;;;;;;;20.38;59.55;97193.63;4896347;28;20769;-77
2023/05/23 03:08:39;;;;;;;31.45;24.52;;;;;;;20.36;59.92;97187.09;4914313;28;21002;-78
2023/05/23 03:11:04;;;;;;;38.90;26.98;;;;;;;20.39;59.73;97192.53;4896648;28;20728;-78
2023/05/23 03:13:30;;;;;;;34.63;25.30;;;;;;;20.27;59.85;97197.66;4897886;28;20103;-78
2023/05/23 03:15:55;;;;;;;36.25;25.70;;;;;;;20.26;59.79;97203.22;4909550;28;20053;-78
2023/05/23 03:18:21;;;;;;;32.30;25.15;;;;;;;20.23;59.32;97204.59;4914283;28;20866;-79
2023/05/23 03:20:46;;;;;;;30.70;24.45;;;;;;;20.21;59.70;97204.16;4913326;28;20629;-81
2023/05/23 03:23:12;;;;;;;30.75;24.80;;;;;;;20.17;60.13;97205.84;4912467;28;20033;-78
2023/05/23 03:25:37;;;;;;;31.02;24.35;;;;;;;20.10;59.86;97198.38;4916616;28;20076;-78
2023/05/23 03:28:03;;;;;;;33.05;24.67;;;;;;;20.11;59.96;97201.78;4893142;28;20091;-78
2023/05/23 03:30:28;;;;;;;31.33;23.92;;;;;;;19.81;60.34;97201.50;4930445;28;20060;-78
2023/05/23 03:32:54;;;;;;;28.70;22.45;;;;;;;19.87;59.82;97204.78;4928249;28;20033;-77
2023/05/23 03:35:20;;;;;;;30.92;23.90;;;;;;;19.74;59.54;97195.81;4911540;28;20155;-80
2023/05/23 03:37:45;;;;;;;32.25;24.40;;;;;;;19.77;59.64;97196.03;4912536;28;20346;-78
2023/05/23 03:40:11;;;;;;;31.42;23.50;;;;;;;19.68;60.18;97207.63;4912641;28;20112;-78
2023/05/23 03:42:38;;;;;;;33.22;23.77;;;;;;;19.66;59.72;97205.28;4913292;28;20033;-78
2023/05/23 03:45:04;;;;;;;29.02;23.00;;;;;;;19.63;60.02;97213.78;4895898;28;20789;-77
2023/05/23 03:47:29;;;;;;;27.52;22.17;;;;;;;19.63;59.62;97211.16;4894861;28;20856;-77
2023/05/23 03:49:55;;;;;;;27.48;22.27;;;;;;;19.63;59.42;97214.56;4912051;28;20042;-77
2023/05/23 03:52:20;;;;;;;28.05;22.42;;;;;;;19.58;59.50;97209.41;4896406;28;21835;-78
2023/05/23 03:54:46;;;;;;;31.95;22.98;;;;;;;19.48;59.99;97219.44;4912189;28;20059;-78
2023/05/23 03:57:11;;;;;;;28.40;21.98;;;;;;;19.41;59.96;97220.63;4905287;28;20025;-78
2023/05/23 03:59:37;;;;;;;30.65;22.05;;;;;;;19.33;60.60;97212.66;4914000;28;20037;-78
2023/05/23 04:02:02;;;;;;;27.88;20.17;;;;;;;19.35;59.88;97208.66;4915491;28;21908;-78
2023/05/23 04:04:28;;;;;;;24.80;18.80;;;;;;;19.34;60.41;97216.88;4896868;28;20092;-79
2023/05/23 04:06:53;;;;;;;22.77;18.10;;;;;;;19.30;59.59;97208.00;4903724;28;20038;-78
2023/05/23 04:09:19;;;;;;;24.08;18.38;;;;;;;19.34;59.44;97219.50;4912064;28;20042;-78
2023/05/23 04:11:46;;;;;;;20.90;17.58;;;;;;;19.31;59.41;97212.19;4908554;28;20033;-78
2023/05/23 04:14:12;;;;;;;18.83;15.95;;;;;;;19.37;59.06;97218.91;4912455;28;20033;-78
2023/05/23 04:16:40;;;;;;;23.65;17.90;;;;;;;19.32;59.40;97217.16;4893385;28;20030;-78
2023/05/23 04:19:06;;;;;;;23.10;16.17;;;;;;;19.32;59.14;97216.41;4893215;28;20821;-78
2023/05/23 04:21:32;;;;;;;21.70;16.88;;;;;;;19.27;59.22;97222.56;4897312;28;20108;-77
2023/05/23 04:23:58;;;;;;;20.40;15.65;;;;;;;19.28;59.71;97226.78;4896611;28;20884;-78
2023/05/23 04:26:24;;;;;;;23.65;17.95;;;;;;;18.92;60.25;97229.41;4922118;28;20034;-77
2023/05/23 04:28:53;;;;;;;21.50;17.60;;;;;;;18.99;59.83;97225.31;4911982;28;20916;-77
2023/05/23 04:31:21;;;;;;;23.42;17.52;;;;;;;19.15;59.77;97231.00;4897636;28;20034;-79
2023/05/23 04:33:48;;;;;;;23.85;18.50;;;;;;;18.97;60.07;97237.22;4928382;28;20339;-77
2023/05/23 04:36:13;;;;;;;23.52;17.65;;;;;;;18.85;60.78;97233.25;4894127;28;20034;-78
2023/05/23 04:38:40;;;;;;;23.65;18.02;;;;;;;18.91;60.14;97241.84;4912093;28;20037;-79
2023/05/23 04:41:11;;;;;;;21.67;17.33;;;;;;;19.01;60.04;97232.94;4909382;28;20072;-78
2023/05/23 04:43:41;;;;;;;25.38;18.25;;;;;;;18.88;60.45;97237.94;4891580;28;20059;-78
2023/05/23 04:46:10;;;;;;;21.17;17.25;;;;;;;19.02;60.00;97240.53;4898807;28;20037;-77
2023/05/23 04:48:37;;;;;;;21.10;16.25;;;;;;;19.10;59.75;97246.97;4906211;28;20087;-79
2023/05/23 04:51:07;;;;;;;22.02;16.83;;;;;;;19.01;59.97;97246.13;4896287;28;20030;-78
2023/05/23 04:53:33;;;;;;;20.23;16.70;;;;;;;19.07;59.62;97250.19;4892536;28;20632;-78
2023/05/23 04:55:59;;;;;;;22.15;16.05;;;;;;;19.09;59.95;97251.47;4890330;28;20181;-77
2023/05/23 04:58:24;;;;;;;23.10;17.40;;;;;;;19.04;60.00;97256.84;4890709;28;20277;-77
2023/05/23 05:00:50;;;;;;;20.45;15.20;;;;;;;19.15;59.74;97262.69;4891771;28;20037;-78
2023/05/23 05:03:15;;;;;;;18.85;15.45;;;;;;;19.23;59.40;97256.69;4893968;28;20038;-77
2023/05/23 05:05:41;;;;;;;21.08;16.73;;;;;;;19.23;59.45;97258.56;4906760;28;20045;-79
2023/05/23 05:08:06;;;;;;;22.90;17.60;;;;;;;19.15;59.00;97265.31;4894217;28;20128;-78
2023/05/23 05:10:31;;;;;;;19.20;15.60;;;;;;;19.12;59.15;97265.91;4912337;28;20030;-78
2023/05/23 05:12:57;;;;;;;18.95;14.98;;;;;;;19.11;58.74;97258.28;4880450;28;20041;-79
2023/05/23 05:15:22;;;;;;;17.85;13.50;;;;;;;19.05;58.38;97261.03;4910974;28;20033;-80
2023/05/23 05:17:48;;;;;;;18.50;14.93;;;;;;;19.09;58.03;97261.25;4912800;28;20688;-78
2023/05/23 05:20:14;;;;;;;18.52;15.05;;;;;;;18.91;58.28;97265.56;4910259;28;20820;-77
2023/05/23 05:22:39;;;;;;;20.10;14.38;;;;;;;18.98;58.15;97273.09;4911727;28;20292;-78
2023/05/23 05:25:09;;;;;;;19.30;15.23;;;;;;;18.83;59.81;97277.63;4898367;28;20226;-78
2023/05/23 05:27:36;;;;;;;17.40;14.30;;;;;;;18.89;58.73;97286.97;4916399;28;20038;-79
2023/05/23 05:30:09;;;;;;;17.90;12.88;;;;;;;19.03;57.93;97272.97;4883192;28;20087;-77
2023/05/23 05:32:34;;;;;;;18.73;14.18;;;;;;;19.10;57.60;97289.19;4914749;28;20742;-79
2023/05/23 05:35:00;;;;;;;17.55;13.98;;;;;;;18.64;59.20;97290.88;4880972;28;20033;-78
2023/05/23 05:37:25;;;;;;;21.40;13.70;;;;;;;18.56;59.36;97291.56;4891603;28;20031;-80
2023/05/23 05:39:53;;;;;;;17.92;12.77;;;;;;;18.65;58.84;97289.03;4899200;28;20870;-79
2023/05/23 05:42:19;;;;;;;16.48;11.98;;;;;;;18.49;58.85;97297.22;4899334;28;20236;-78
2023/05/23 05:44:46;;;;;;;15.65;11.70;;;;;;;18.82;58.00;97293.72;4901498;28;20176;-78
2023/05/23 05:47:12;;;;;;;17.95;12.05;;;;;;;18.77;57.98;97288.53;4915091;28;20057;-77
2023/05/23 05:49:37;;;;;;;14.30;11.43;;;;;;;18.87;57.55;97289.13;4914664;28;20056;-78
2023/05/23 05:52:03;;;;;;;13.93;11.18;;;;;;;19.00;56.63;97289.41;4899825;28;20044;-79
2023/05/23 05:54:29;;;;;;;12.98;10.07;;;;;;;19.07;56.55;97290.56;4915151;28;20025;-78
2023/05/23 05:56:54;;;;;;;13.48;10.43;;;;;;;19.21;56.40;97293.19;4913003;28;20033;-78
2023/05/23 05:59:20;;;;;;;12.02;9.90;;;;;;;19.27;56.28;97305.19;4904650;28;20040;-79
2023/05/23 06:01:45;;;;;;;19.65;10.70;;;;;;;19.17;56.61;97297.47;4903695;28;20037;-78
2023/05/23 06:04:10;;;;;;;15.48;10.55;;;;;;;18.96;56.69;97304.28;4915641;28;20030;-79
2023/05/23 06:06:36;;;;;;;12.93;10.77;;;;;;;18.83;57.36;97300.56;4907337;28;20017;-79
2023/05/23 06:09:01;;;;;;;13.93;10.85;;;;;;;18.94;56.45;97303.78;4916264;28;20026;-78
2023/05/23 06:11:27;;;;;;;14.38;10.63;;;;;;;19.17;56.66;97305.41;4918859;28;20038;-78
2023/05/23 06:13:52;;;;;;;13.23;10.23;;;;;;;19.21;56.55;97300.31;4881869;28;20681;-77
2023/05/23 06:16:18;;;;;;;11.60;9.57;;;;;;;19.42;56.09;97305.94;4913889;28;20749;-78
2023/05/23 06:18:43;;;;;;;15.48;10.75;;;;;;;19.34;55.92;97311.91;4899593;28;20385;-79
2023/05/23 06:21:09;;;;;;;12.93;10.88;;;;;;;19.00;56.37;97310.50;4914210;28;20031;-81
2023/05/23 06:23:34;;;;;;;12.38;9.45;;;;;;;19.24;55.89;97311.06;4915158;28;20052;-78
2023/05/23 06:26:00;;;;;;;12.95;9.82;;;;;;;19.08;56.06;97318.50;4916593;28;20033;-78
2023/05/23 06:28:26;;;;;;;13.55;10.10;;;;;;;19.15;55.54;97320.75;4901203;28;20033;-77
2023/05/23 06:30:51;;;;;;;12.30;9.30;;;;;;;19.14;55.89;97311.28;4915097;28;20862;-81
2023/05/23 06:33:16;;;;;;;12.82;9.80;;;;;;;19.27;55.26;97325.53;4898853;28;20044;-78
2023/05/23 06:35:42;;;;;;;10.50;8.38;;;;;;;19.25;55.04;97320.53;4899698;28;20029;-77
2023/05/23 06:38:07;;;;;;;12.45;10.07;;;;;;;19.12;56.22;97317.94;4915959;28;20033;-80
2023/05/23 06:40:33;;;;;;;11.32;9.13;;;;;;;19.23;55.61;97335.91;4914118;28;20110;-79
2023/05/23 06:42:58;;;;;;;13.30;9.50;;;;;;;19.23;55.60;97325.34;4913893;28;20121;-78
2023/05/23 06:45:24;;;;;;;10.00;8.35;;;;;;;19.32;54.83;97335.19;4897778;28;20033;-79
2023/05/23 06:47:49;;;;;;;10.82;8.77;;;;;;;19.42;55.29;97334.97;4896702;28;20202;-78
2023/05/23 06:50:18;;;;;;;11.00;8.68;;;;;;;19.36;55.34;97334.28;4893877;28;20597;-79
2023/05/23 06:52:45;;;;;;;11.48;8.80;;;;;;;19.12;55.11;97331.13;4900783;28;20632;-78
2023/05/23 06:55:13;;;;;;;11.00;8.88;;;;;;;19.19;55.53;97342.84;4897972;28;20034;-79
2023/05/23 06:57:38;;;;;;;10.15;8.90;;;;;;;19.28;56.21;97349.00;4914098;28;20847;-79
2023/05/23 07:00:05;;;;;;;10.80;8.27;;;;;;;19.08;55.80;97349.41;4891287;28;20037;-78
2023/05/23 07:02:30;;;;;;;12.10;8.73;;;;;;;18.90;56.25;97349.22;4910336;28;20021;-79
2023/05/23 07:04:55;;;;;;;10.45;8.57;;;;;;;19.13;54.94;97357.22;4908408;28;20045;-79
2023/05/23 07:07:21;;;;;;;9.75;7.68;;;;;;;19.33;55.18;97360.50;4879409;28;20042;-78
2023/05/23 07:09:46;;;;;;;9.20;7.88;;;;;;;19.17;55.70;97360.81;4898677;28;20026;-78
2023/05/23 07:12:12;;;;;;;11.52;8.77;;;;;;;18.18;57.38;97364.72;4917170;28;20092;-79
2023/05/23 07:14:37;;;;;;;9.13;6.88;;;;;;;18.85;56.12;97361.72;4915585;28;20921;-78
2023/05/23 07:17:02;;;;;;;8.05;6.68;;;;;;;19.12;55.62;97363.56;4921363;28;20037;-78
2023/05/23 07:19:28;;;;;;;9.30;7.70;;;;;;;18.84;55.92;97366.22;4916835;28;20025;-78
2023/05/23 07:21:53;;;;;;;8.48;6.82;;;;;;;18.53;55.88;97374.66;4913625;28;20030;-79
2023/05/23 07:24:19;;;;;;;8.52;6.68;;;;;;;18.21;57.07;97364.16;4899541;28;20065;-78
2023/05/23 07:26:44;;;;;;;7.03;6.32;;;;;;;18.58;56.22;97373.03;4914222;28;20033;-78
2023/05/23 07:29:09;;;;;;;6.85;6.10;;;;;;;18.68;55.56;97373.63;4899904;28;20028;-80
2023/05/23 07:31:35;;;;;;;7.90;5.60;;;;;;;18.75;55.63;97381.16;4928102;28;20034;-79
2023/05/23 07:34:00;;;;;;;6.97;5.28;;;;;;;18.86;54.56;97387.81;4906965;28;20037;-79
2023/05/23 07:36:26;;;;;;;7.35;5.25;;;;;;;19.08;54.54;97381.06;4920376;28;20405;-79
2023/05/23 07:38:52;;;;;;;6.90;4.90;;;;;;;18.83;54.44;97393.69;4908551;28;20823;-80
2023/05/23 07:41:17;;;;;;;5.30;4.47;;;;;;;18.67;55.43;97392.38;4898920;28;20121;-79
2023/05/23 07:43:42;;;;;;;5.50;4.65;;;;;;;18.72;54.81;97384.38;4898305;28;20029;-79
2023/05/23 07:46:08;;;;;;;5.18;4.47;;;;;;;18.48;55.13;97395.84;4897543;28;20045;-79
2023/05/23 07:48:33;;;;;;;5.03;4.20;;;;;;;18.45;55.39;97385.88;4883711;28;20033;-79
2023/05/23 07:51:02;;;;;;;5.03;4.30;;;;;;;18.53;54.62;97398.41;4929078;28;20065;-79
2023/05/23 07:53:27;;;;;;;3.88;3.47;;;;;;;18.58;54.66;97392.25;4894355;28;20034;-80
2023/05/23 07:55:52;;;;;;;4.15;3.75;;;;;;;18.60;54.31;97391.97;4912075;28;20049;-80
2023/05/23 07:58:18;;;;;;;5.53;3.80;;;;;;;18.14;55.28;97396.91;4894400;28;20305;-78
2023/05/23 08:00:44;;;;;;;4.38;3.55;;;;;;;18.67;54.35;97392.38;4903228;28;20300;-79
2023/05/23 08:03:10;;;;;;;4.13;3.72;;;;;;;18.78;53.78;97404.31;4893751;28;20198;-80
2023/05/23 08:05:36;;;;;;;4.65;3.60;;;;;;;18.68;53.35;97400.00;4900672;28;20140;-80
2023/05/23 08:08:04;;;;;;;4.03;3.63;;;;;;;18.88;53.44;97398.88;4906928;28;20254;-79
2023/05/23 08:10:30;;;;;;;4.15;3.75;;;;;;;18.76;53.49;97401.16;4913152;28;20210;-81
2023/05/23 08:12:55;;;;;;;3.78;3.40;;;;;;;18.97;53.35;97406.91;4892343;28;20179;-80
2023/05/23 08:15:22;;;;;;;4.85;3.60;;;;;;;19.21;52.23;97401.41;4916681;28;20318;-81
2023/05/23 08:17:55;;;;;;;4.22;3.80;;;;;;;19.08;53.55;97404.84;4892561;28;20187;-80
2023/05/23 08:20:21;;;;;;;5.10;3.92;;;;;;;19.20;53.09;97405.13;4906993;28;20226;-79
2023/05/23 08:22:46;;;;;;;3.97;3.58;;;;;;;19.29;52.44;97407.84;4915017;28;20742;-79
2023/05/23 08:25:11;;;;;;;5.50;3.97;;;;;;;19.33;52.31;97403.56;4902438;28;20284;-80
2023/05/23 08:27:37;;;;;;;5.13;4.03;;;;;;;19.32;51.94;97398.56;4908549;28;20206;-80
2023/05/23 08:30:03;;;;;;;5.00;3.83;;;;;;;19.31;52.61;97399.63;4909472;28;20148;-79
2023/05/23 08:32:29;;;;;;;4.28;3.88;;;;;;;19.33;52.61;97408.03;4895885;28;20727;-80
2023/05/23 08:34:54;;;;;;;5.35;3.53;;;;;;;19.38;52.78;97407.94;4903033;28;20183;-79
2023/05/23 08:37:19;;;;;;;5.60;4.63;;;;;;;19.35;52.66;97405.91;4894007;28;20277;-78
2023/05/23 08:39:45;;;;;;;5.22;3.97;;;;;;;19.14;53.51;97411.59;4910229;28;20380;-80
2023/05/23 08:42:19;;;;;;;5.53;4.70;;;;;;;18.97;53.22;97417.44;4926123;28;20397;-79
2023/05/23 08:44:45;;;;;;;5.20;4.70;;;;;;;18.92;54.05;97409.63;4884928;28;20225;-81
2023/05/23 08:47:11;;;;;;;5.07;4.20;;;;;;;18.98;54.14;97412.94;4893030;28;20264;-81
2023/05/23 08:49:37;;;;;;;28.23;5.78;;;;;;;18.98;53.75;97415.59;4894461;28;20264;-78
2023/05/23 08:52:03;;;;;;;4.85;3.80;;;;;;;19.17;53.16;97416.25;4922350;28;20335;-80
2023/05/23 08:54:29;;;;;;;5.63;4.60;;;;;;;19.19;54.54;97424.69;4905574;28;20336;-80
2023/05/23 08:56:55;;;;;;;5.38;4.40;;;;;;;19.26;54.46;97413.72;4908717;28;20251;-81
2023/05/23 08:59:20;;;;;;;5.03;4.53;;;;;;;19.10;53.67;97410.59;4925719;28;20336;-83
2023/05/23 09:01:47;;;;;;;9.30;5.00;;;;;;;19.17;53.62;97416.25;4913842;28;20200;-79
2023/05/23 09:04:12;;;;;;;6.85;5.10;;;;;;;19.25;53.00;97409.53;4897899;28;20237;-79
2023/05/23 09:06:38;;;;;;;6.30;4.88;;;;;;;19.40;53.04;97417.13;4909784;28;20651;-78
2023/05/23 09:09:03;;;;;;;5.40;4.88;;;;;;;19.51;53.59;97420.34;4909330;28;20658;-79
2023/05/23 09:11:32;;;;;;;5.10;4.47;;;;;;;19.75;53.07;97419.34;4926555;28;20215;-79
2023/05/23 09:13:58;;;;;;;5.70;5.10;;;;;;;19.80;52.18;97413.94;4909754;28;20229;-78
2023/05/23 09:16:31;;;;;;;6.68;5.28;;;;;;;20.01;52.27;97422.19;4912597;28;20183;-79
2023/05/23 09:18:56;;;;;;;4.90;4.40;;;;;;;20.01;50.74;97409.78;4897113;28;20206;-79
2023/05/23 09:21:23;;;;;;;7.10;4.80;;;;;;;20.13;51.22;97425.06;4897126;28;20114;-78
2023/05/23 09:23:49;;;;;;;6.57;4.30;;;;;;;20.25;51.40;97431.69;4895972;28;20284;-78
2023/05/23 09:26:14;;;;;;;7.35;4.45;;;;;;;20.16;51.81;97429.00;4894711;28;20176;-78
2023/05/23 09:28:41;;;;;;;4.63;4.15;;;;;;;20.24;51.57;97424.84;4909274;28;20695;-79
2023/05/23 09:31:07;;;;;;;4.70;4.10;;;;;;;20.25;50.92;97432.47;4910177;28;20253;-80
2023/05/23 09:33:42;;;;;;;4.72;4.22;;;;;;;20.34;50.48;97425.38;4912249;28;20209;-78
2023/05/23 09:36:08;;;;;;;4.93;3.88;;;;;;;20.28;50.29;97436.38;4893949;28;20299;-78
2023/05/23 09:38:38;;;;;;;4.75;3.83;;;;;;;20.17;51.14;97435.84;4925073;28;20213;-80
2023/05/23 09:41:04;;;;;;;5.15;4.65;;;;;;;19.45;52.03;97426.81;4909186;28;20280;-79
2023/05/23 09:43:29;;;;;;;5.65;4.10;;;;;;;19.81;51.86;97434.00;4895064;28;20634;-78
2023/05/23 09:45:59;;;;;;;4.97;4.40;;;;;;;19.68;53.05;97429.50;4925758;28;20102;-80
2023/05/23 09:48:29;;;;;;;4.95;4.30;;;;;;;19.73;52.33;97432.03;4910808;28;20211;-78
2023/05/23 09:50:55;;;;;;;6.20;4.45;;;;;;;19.74;51.71;97430.94;4897702;28;20286;-78
2023/05/23 09:53:21;;;;;;;4.57;4.05;;;;;;;19.97;51.91;97429.94;4911139;28;20309;-81
2023/05/23 09:55:52;;;;;;;4.88;3.80;;;;;;;20.08;50.75;97424.41;4892409;28;20445;-79
2023/05/23 09:58:19;;;;;;;4.30;3.90;;;;;;;20.01;51.45;97427.47;4910439;28;20716;-78
2023/05/23 10:00:46;;;;;;;4.85;3.60;;;;;;;19.90;52.05;97426.94;4892759;28;20252;-78
2023/05/23 10:03:12;;;;;;;4.63;3.53;;;;;;;20.14;51.74;97436.44;4891391;28;20217;-79
2023/05/23 10:05:47;;;;;;;4.70;3.65;;;;;;;20.21;51.53;97450.03;4912287;28;20195;-78
2023/05/23 10:08:38;;;;;;;4.22;3.78;;;;;;;20.26;51.66;97441.97;4910722;28;20322;-78
2023/05/23 10:11:12;;;;;;;4.13;3.63;;;;;;;20.30;50.78;97442.91;4925582;28;20282;-81
2023/05/23 10:13:40;;;;;;;3.65;3.35;;;;;;;20.18;50.65;97440.81;4928338;28;20167;-79
2023/05/23 10:16:14;;;;;;;5.00;4.55;;;;;;;20.07;52.28;97450.06;4909434;28;20278;-79
2023/05/23 10:18:43;;;;;;;4.65;3.65;;;;;;;20.16;51.41;97445.63;4910511;28;20412;-80
2023/05/23 10:21:11;;;;;;;4.28;3.72;;;;;;;19.96;51.17;97448.72;4879477;28;20171;-77
2023/05/23 10:23:37;;;;;;;7.25;4.05;;;;;;;19.97;50.50;97437.09;4897786;28;20193;-79
2023/05/23 10:26:04;;;;;;;5.50;4.60;;;;;;;20.08;50.89;97440.28;4909819;28;20644;-79
2023/05/23 10:28:31;;;;;;;4.25;3.80;;;;;;;20.09;51.59;97441.84;4893994;28;20272;-78
2023/05/23 10:30:57;;;;;;;4.78;4.28;;;;;;;20.03;51.16;97446.44;4909797;28;20591;-79
2023/05/23 10:33:23;;;;;;;4.45;3.90;;;;;;;20.04;51.67;97436.69;4896969;28;20299;-79
2023/05/23 10:36:00;;;;;;;4.40;4.03;;;;;;;20.46;50.92;97450.50;4895613;28;20205;-81
2023/05/23 10:38:35;;;;;;;4.43;3.92;;;;;;;20.00;50.31;97441.78;4924602;28;20272;-81
2023/05/23 10:41:07;;;;;;;;;;;;;;;20.01;50.62;97454.72;4897006;28;20702;-79
2023/05/23 10:43:50;;;;;;;4.47;3.63;;;;;;;20.55;49.29;97446.06;4893740;28;20432;-80
2023/05/23 10:46:19;;;;;;;5.15;4.35;;;;;;;20.44;49.52;97460.59;4927899;28;20617;-79
2023/05/23 10:48:45;;;;;;;4.65;4.25;;;;;;;20.25;49.70;97453.63;4916267;28;20293;-80
2023/05/23 10:51:13;;;;;;;4.70;4.30;;;;;;;20.34;49.37;97465.06;4911137;28;20336;-79
2023/05/23 10:53:45;;;;;;;4.63;4.22;;;;;;;20.22;50.24;97459.53;4893664;28;20368;-78
2023/05/23 10:56:20;;;;;;;5.93;5.32;;;;;;;20.39;50.34;97469.44;4892129;28;20576;-78
2023/05/23 10:58:46;;;;;;;5.40;4.82;;;;;;;19.83;51.22;97468.84;4897837;28;20290;-79
2023/05/23 11:01:16;;;;;;;4.70;4.20;;;;;;;20.17;50.51;97459.66;4910709;28;20254;-79
2023/05/23 11:03:45;;;;;;;5.30;4.65;;;;;;;20.29;51.27;97467.03;4912773;28;20275;-78
2023/05/23 11:06:37;;;;;;;5.10;4.60;;;;;;;20.51;50.94;97467.03;4908425;28;20307;-79
2023/05/23 11:09:12;;;;;;;5.03;4.53;;;;;;;20.52;50.42;97467.81;4910248;28;20190;-78
2023/05/23 11:11:47;;;;;;;4.80;4.40;;;;;;;20.59;50.73;97471.56;4917007;28;20633;-79
2023/05/23 11:14:13;;;;;;;5.05;4.55;;;;;;;20.43;49.83;97472.28;4910195;28;20171;-79
2023/05/23 11:16:40;;;;;;;5.40;4.85;;;;;;;20.46;49.61;97474.28;4891464;28;20189;-79
2023/05/23 11:19:18;;;;;;;5.68;5.07;;;;;;;20.41;50.15;97467.28;4909919;28;20580;-79
2023/05/23 11:21:45;;;;;;;4.97;4.57;;;;;;;20.18;51.40;97477.06;4907471;28;20205;-79
2023/05/23 11:24:11;;;;;;;6.65;5.97;;;;;;;19.88;50.41;97470.56;4909948;28;20332;-77